createdAt,value
2023-02-02T00:03:26.726Z,17.70
2023-02-02T00:18:26.579Z,20.30
2023-02-02T00:33:26.397Z,18.80
2023-02-02T00:48:26.277Z,18.60
2023-02-02T01:03:26.078Z,14.30
2023-02-02T01:18:25.917Z,16.60
2023-02-02T01:33:25.748Z,16.20
2023-02-02T01:48:25.662Z,19.20
2023-02-02T02:03:25.571Z,19.90
2023-02-02T02:18:25.360Z,16.20
2023-02-02T02:33:25.102Z,20.00
2023-02-02T02:48:24.938Z,17.70
2023-02-02T03:03:24.785Z,15.40
2023-02-02T03:18:24.617Z,17.50
2023-02-02T03:33:24.467Z,14.90
2023-02-02T03:48:24.306Z,12.90
2023-02-02T04:03:24.152Z,9.50
2023-02-02T04:18:24.017Z,15.10
2023-02-02T04:33:24.476Z,10.20
2023-02-02T04:48:23.666Z,11.90
2023-02-02T05:03:23.528Z,11.70
2023-02-02T05:18:23.359Z,10.70
2023-02-02T05:33:23.230Z,12.40
2023-02-02T05:48:23.123Z,12.50
2023-02-02T06:03:22.978Z,13.20
2023-02-02T06:18:22.744Z,13.20
2023-02-02T06:33:22.581Z,12.80
2023-02-02T06:48:22.493Z,10.50
2023-02-02T07:03:22.275Z,15.30
2023-02-02T07:18:22.107Z,13.60
2023-02-02T07:33:21.968Z,10.70
2023-02-02T07:48:21.854Z,9.70
2023-02-02T08:03:21.867Z,12.80
2023-02-02T08:18:21.467Z,14.00
2023-02-02T08:33:21.328Z,15.10
2023-02-02T08:48:21.178Z,11.10
2023-02-02T09:03:20.997Z,15.90
2023-02-02T09:18:20.835Z,15.30
2023-02-02T09:33:20.742Z,11.50
2023-02-02T09:48:20.547Z,10.90
2023-02-02T10:03:20.369Z,10.90
2023-02-02T10:18:20.211Z,10.60
2023-02-02T10:33:20.078Z,10.00
2023-02-02T10:48:19.905Z,9.40
2023-02-02T11:03:19.751Z,9.70
2023-02-02T11:18:19.640Z,7.70
2023-02-02T11:33:19.433Z,7.10
2023-02-02T11:48:19.708Z,7.40
2023-02-02T12:03:19.132Z,8.50
2023-02-02T12:18:25.022Z,9.10
2023-02-02T12:33:18.811Z,9.10
2023-02-02T12:48:18.762Z,8.40
2023-02-02T13:03:18.636Z,9.30
2023-02-02T13:18:18.408Z,6.90
2023-02-02T13:33:18.389Z,5.70
2023-02-02T13:48:18.297Z,7.20
2023-02-02T14:03:17.873Z,4.70
2023-02-02T14:18:17.703Z,6.40
2023-02-02T14:33:17.581Z,5.00
2023-02-02T14:48:17.393Z,6.70
2023-02-02T15:03:17.252Z,7.20
2023-02-02T15:18:17.085Z,5.20
2023-02-02T15:33:16.919Z,4.40
2023-02-02T15:48:16.771Z,4.00
2023-02-02T16:03:16.594Z,4.40
2023-02-02T16:18:16.517Z,4.40
2023-02-02T16:33:16.264Z,6.90
2023-02-02T16:48:18.150Z,7.00
2023-02-02T17:03:15.978Z,4.60
2023-02-02T17:18:15.809Z,6.20
2023-02-02T17:33:15.680Z,5.70
2023-02-02T17:48:15.510Z,5.80
2023-02-02T18:03:15.373Z,8.50
2023-02-02T18:18:15.229Z,12.20
2023-02-02T18:33:15.048Z,10.60
2023-02-02T18:48:15.620Z,8.40
2023-02-02T19:03:14.743Z,10.70
2023-02-02T19:18:14.714Z,9.00
2023-02-02T19:33:14.518Z,12.40
2023-02-02T19:48:14.325Z,14.00
2023-02-02T20:03:14.348Z,16.50
2023-02-02T20:18:14.123Z,18.70
2023-02-02T20:33:13.878Z,27.40
2023-02-02T20:48:13.735Z,22.00
2023-02-02T21:03:13.590Z,23.00
2023-02-02T21:18:13.452Z,18.50
2023-02-02T21:33:13.321Z,19.10
2023-02-02T21:48:13.264Z,21.30
2023-02-02T22:03:13.027Z,21.30
2023-02-02T22:18:12.888Z,21.90
2023-02-02T22:33:12.727Z,36.30
2023-02-02T22:48:12.580Z,24.10
2023-02-02T23:03:12.572Z,21.50
2023-02-02T23:18:12.293Z,20.60
2023-02-02T23:33:12.171Z,19.20
2023-02-02T23:48:12.012Z,20.60
